Irondequoit, New York
Current Conditions -  °F | °C
As of 1:54 PM on Sunday 23 Nov 2014 (Local Time) from KROC Reporting Station
Broken Clouds Broken Clouds  
Wind Chill: 51°   Ceiling: 12000
Heat Index: 51°   Visibility: 10mi
Dew Point: 40°   Wind: 9mph
Humidity: 66%   Direction: 200°SSW
Pressure: 29.98"   Gusts: NA
Location:  43.21°N, 77.58°W
Report Text: KROC 231854Z 20008KT 10SM FEW090 BKN120 11/04 A2998 RMK AO2 SLP157 T01060044
Loading
Personal Weather Stations






























Interactive Weather Map New forecast layout! Learn more

10-Day Weather Forecast

Advertisements
Track Severe Weather on mobile